createdAt,value
2016-10-11T00:00:57.646Z,6.91
2016-10-11T00:01:57.626Z,7.02
2016-10-11T00:02:57.935Z,6.91
2016-10-11T00:03:57.596Z,6.89
2016-10-11T00:04:57.898Z,6.81
2016-10-11T00:05:57.560Z,6.76
2016-10-11T00:06:57.551Z,6.8
2016-10-11T00:07:57.529Z,6.72
2016-10-11T00:08:57.829Z,6.73
2016-10-11T00:09:57.495Z,6.71
2016-10-11T00:10:57.491Z,6.76
2016-10-11T00:11:57.468Z,6.72
2016-10-11T00:12:57.450Z,6.77
2016-10-11T00:13:57.432Z,6.59
2016-10-11T00:14:57.419Z,6.59
2016-10-11T00:15:57.399Z,6.61
2016-10-11T00:16:57.388Z,6.65
2016-10-11T00:17:57.995Z,6.51
2016-10-11T00:18:57.667Z,6.56
2016-10-11T00:19:57.337Z,6.59
2016-10-11T00:20:57.948Z,6.58
2016-10-11T00:21:57.308Z,6.59
2016-10-11T00:22:57.285Z,6.54
2016-10-11T00:23:57.278Z,6.5
2016-10-11T00:24:57.261Z,6.51
2016-10-11T00:25:57.247Z,6.47
2016-10-11T00:26:57.222Z,6.38
2016-10-11T00:27:57.525Z,6.36
2016-10-11T00:28:57.501Z,6.38
2016-10-11T00:29:57.168Z,6.3
2016-10-11T00:30:57.158Z,6.32
2016-10-11T00:31:57.136Z,6.3
2016-10-11T00:32:57.435Z,6.29
2016-10-11T00:33:57.109Z,6.33
2016-10-11T00:34:57.100Z,6.29
2016-10-11T00:35:57.073Z,6.3
2016-10-11T00:36:57.068Z,6.32
2016-10-11T00:37:57.037Z,6.29
2016-10-11T00:38:57.657Z,6.28
2016-10-11T00:39:57.324Z,6.21
2016-10-11T00:40:57.007Z,6.18
2016-10-11T00:41:57.312Z,6.25
2016-10-11T00:42:56.961Z,6.21
2016-10-11T00:43:56.944Z,6.21
2016-10-11T00:44:57.236Z,6.28
2016-10-11T00:45:57.227Z,6.06
2016-10-11T00:46:56.901Z,6.09
2016-10-11T00:47:56.904Z,6.07
2016-10-11T00:48:56.857Z,6.03
2016-10-11T00:49:56.843Z,6.04
2016-10-11T00:50:56.828Z,5.92
2016-10-11T00:51:56.813Z,6.01
2016-10-11T00:52:56.796Z,5.92
2016-10-11T00:53:57.407Z,5.91
2016-10-11T00:54:56.762Z,5.93
2016-10-11T00:55:56.743Z,6.03
2016-10-11T00:56:56.729Z,5.93
2016-10-11T00:57:56.706Z,5.93
2016-10-11T00:58:57.005Z,5.96
2016-10-11T00:59:56.673Z,5.98
2016-10-11T01:00:56.660Z,5.88
2016-10-11T01:01:56.644Z,5.89
2016-10-11T01:02:56.636Z,5.91
2016-10-11T01:03:56.608Z,5.82
2016-10-11T01:04:56.594Z,5.86
2016-10-11T01:05:56.574Z,5.93
2016-10-11T01:06:56.563Z,5.95
2016-10-11T01:07:57.056Z,5.89
2016-10-11T01:08:56.526Z,5.98
2016-10-11T01:09:56.511Z,5.96
2016-10-11T01:10:56.493Z,5.95
2016-10-11T01:11:56.783Z,5.95
2016-10-11T01:12:56.459Z,5.81
2016-10-11T01:13:56.441Z,5.86
2016-10-11T01:14:56.735Z,5.85
2016-10-11T01:15:56.714Z,5.86
2016-10-11T01:16:56.392Z,5.88
2016-10-11T01:17:56.371Z,5.86
2016-10-11T01:18:56.366Z,5.82
2016-10-11T01:19:56.342Z,5.86
2016-10-11T01:20:56.332Z,5.81
2016-10-11T01:21:56.304Z,5.83
2016-10-11T01:22:56.348Z,5.81
2016-10-11T01:23:56.582Z,5.77
2016-10-11T01:24:56.252Z,5.77
2016-10-11T01:25:56.870Z,5.7
2016-10-11T01:26:56.221Z,5.68
2016-10-11T01:27:56.209Z,5.73
2016-10-11T01:28:56.195Z,5.68
2016-10-11T01:29:56.173Z,5.68
2016-10-11T01:30:56.161Z,5.6
2016-10-11T01:31:56.161Z,5.66
2016-10-11T01:32:56.441Z,5.6
2016-10-11T01:33:56.104Z,5.56
2016-10-11T01:34:56.085Z,5.56
2016-10-11T01:35:56.434Z,5.56
2016-10-11T01:36:56.056Z,5.59
2016-10-11T01:37:56.674Z,5.56
2016-10-11T01:38:56.019Z,5.59
2016-10-11T01:39:56.000Z,5.48
2016-10-11T01:40:56.608Z,5.64
2016-10-11T01:41:56.279Z,5.52
2016-10-11T01:42:56.274Z,5.46
2016-10-11T01:43:55.936Z,5.52
2016-10-11T01:44:56.540Z,5.46
2016-10-11T01:45:55.900Z,5.45
2016-10-11T01:46:55.883Z,5.46
2016-10-11T01:47:55.871Z,5.45
2016-10-11T01:48:55.847Z,5.46
2016-10-11T01:49:56.144Z,5.35
2016-10-11T01:50:55.823Z,5.4
2016-10-11T01:51:55.800Z,5.3
2016-10-11T01:52:56.093Z,5.34
2016-10-11T01:53:56.079Z,5.25
2016-10-11T01:54:55.745Z,5.32
2016-10-11T01:55:55.730Z,5.31
2016-10-11T01:56:55.707Z,5.31
2016-10-11T01:57:56.005Z,5.23
2016-10-11T01:58:55.676Z,5.2
2016-10-11T01:59:55.657Z,5.19
2016-10-11T02:00:55.635Z,5.14
2016-10-11T02:01:55.628Z,5.13
2016-10-11T02:02:55.605Z,5.19
2016-10-11T02:03:55.901Z,5.14
2016-10-11T02:04:55.572Z,5.22
2016-10-11T02:05:55.864Z,5.16
2016-10-11T02:06:55.538Z,5.13
2016-10-11T02:07:55.523Z,5.16
2016-10-11T02:08:55.503Z,5.17
2016-10-11T02:09:55.486Z,5.13
2016-10-11T02:10:55.468Z,5.23
2016-10-11T02:11:55.768Z,5.13
2016-10-11T02:12:55.749Z,5.2
2016-10-11T02:13:55.493Z,5.17
2016-10-11T02:14:55.727Z,5.14
2016-10-11T02:15:55.693Z,5.17
2016-10-11T02:16:55.361Z,5.14
2016-10-11T02:17:55.344Z,5.16
2016-10-11T02:18:55.332Z,5.13
2016-10-11T02:19:55.624Z,5.14
2016-10-11T02:20:55.295Z,5.16
2016-10-11T02:21:55.279Z,5.27
2016-10-11T02:22:55.264Z,5.16
2016-10-11T02:23:55.239Z,5.12
2016-10-11T02:24:55.221Z,5.16
2016-10-11T02:25:55.212Z,5.16
2016-10-11T02:26:55.545Z,5.14
2016-10-11T02:27:55.172Z,5.17
2016-10-11T02:28:55.160Z,5.14
2016-10-11T02:29:55.452Z,5.19
2016-10-11T02:30:55.170Z,5.1
2016-10-11T02:31:55.098Z,5.17
2016-10-11T02:32:55.396Z,5.2
2016-10-11T02:33:55.069Z,5.17
2016-10-11T02:34:55.107Z,5.16
2016-10-11T02:35:55.033Z,5.12
2016-10-11T02:36:55.023Z,5.1
2016-10-11T02:37:55.305Z,5.1
2016-10-11T02:38:54.977Z,5.14
2016-10-11T02:39:54.960Z,5.14
2016-10-11T02:40:54.948Z,5.09
2016-10-11T02:41:54.929Z,5.09
2016-10-11T02:42:54.905Z,5.04
2016-10-11T02:43:54.892Z,5.05
2016-10-11T02:44:55.181Z,4.92
2016-10-11T02:45:54.856Z,4.99
2016-10-11T02:46:54.830Z,4.95
2016-10-11T02:47:55.133Z,4.98
2016-10-11T02:48:55.446Z,4.96
2016-10-11T02:49:54.785Z,5.04
2016-10-11T02:50:55.081Z,4.96
2016-10-11T02:51:54.752Z,4.91
2016-10-11T02:52:55.042Z,4.91
2016-10-11T02:53:54.713Z,4.89
2016-10-11T02:54:55.008Z,4.92
2016-10-11T02:55:54.991Z,4.94
2016-10-11T02:56:54.661Z,4.86
2016-10-11T02:57:54.653Z,4.88
2016-10-11T02:58:54.629Z,4.86
2016-10-11T02:59:54.607Z,4.86
2016-10-11T03:00:54.596Z,4.77
2016-10-11T03:01:54.895Z,4.76
2016-10-11T03:02:54.884Z,4.86
2016-10-11T03:03:54.545Z,4.89
2016-10-11T03:04:54.544Z,4.73
2016-10-11T03:05:54.814Z,4.8
2016-10-11T03:06:54.486Z,4.79
2016-10-11T03:07:54.674Z,4.7
2016-10-11T03:08:54.476Z,4.65
2016-10-11T03:09:54.445Z,4.69
2016-10-11T03:10:54.412Z,4.64
2016-10-11T03:11:54.456Z,4.59
2016-10-11T03:12:54.696Z,4.67
2016-10-11T03:13:54.729Z,4.59
2016-10-11T03:14:54.342Z,4.61
2016-10-11T03:15:54.644Z,4.57
2016-10-11T03:16:54.625Z,4.61
2016-10-11T03:17:54.296Z,4.55
2016-10-11T03:18:54.273Z,4.54
2016-10-11T03:19:54.616Z,4.5
2016-10-11T03:20:54.238Z,4.46
2016-10-11T03:21:54.528Z,4.42
2016-10-11T03:22:54.214Z,4.47
2016-10-11T03:23:54.186Z,4.34
2016-10-11T03:24:54.165Z,4.37
2016-10-11T03:25:54.154Z,4.39
2016-10-11T03:26:54.447Z,4.36
2016-10-11T03:27:54.429Z,4.33
2016-10-11T03:28:54.099Z,4.25
2016-10-11T03:29:54.078Z,4.26
2016-10-11T03:30:54.068Z,4.33
2016-10-11T03:31:54.055Z,4.28
2016-10-11T03:32:54.029Z,4.28
2016-10-11T03:33:54.002Z,4.22
2016-10-11T03:34:53.984Z,4.19
2016-10-11T03:35:53.971Z,4.25
2016-10-11T03:36:53.967Z,4.16
2016-10-11T03:37:53.935Z,4.24
2016-10-11T03:38:54.231Z,4.18
2016-10-11T03:39:53.893Z,4.12
2016-10-11T03:40:53.880Z,4.15
2016-10-11T03:41:53.859Z,4.12
2016-10-11T03:42:53.843Z,4.14
2016-10-11T03:43:53.824Z,4.06
2016-10-11T03:44:54.128Z,4.06
2016-10-11T03:45:53.791Z,4.07
2016-10-11T03:46:54.082Z,4.07
2016-10-11T03:47:53.755Z,4
2016-10-11T03:48:53.734Z,3.96
2016-10-11T03:49:54.041Z,3.97
2016-10-11T03:50:53.706Z,3.92
2016-10-11T03:51:53.990Z,3.94
2016-10-11T03:52:53.662Z,3.92
2016-10-11T03:53:54.274Z,3.85
2016-10-11T03:54:53.633Z,3.89
2016-10-11T03:55:53.923Z,3.86
2016-10-11T03:56:53.586Z,3.82
2016-10-11T03:57:53.888Z,3.83
2016-10-11T03:58:53.553Z,3.85
2016-10-11T03:59:54.191Z,3.83
2016-10-11T04:00:53.854Z,3.76
2016-10-11T04:01:53.505Z,3.89
2016-10-11T04:02:53.484Z,3.76
2016-10-11T04:03:53.464Z,3.72
2016-10-11T04:04:53.757Z,3.75
2016-10-11T04:05:53.431Z,3.78
2016-10-11T04:06:53.416Z,3.79
2016-10-11T04:07:54.018Z,3.76
2016-10-11T04:08:53.390Z,3.75
2016-10-11T04:09:53.355Z,3.68
2016-10-11T04:10:53.334Z,3.7
2016-10-11T04:11:53.312Z,3.67
2016-10-11T04:12:53.612Z,3.72
2016-10-11T04:13:53.592Z,3.71
2016-10-11T04:14:53.259Z,3.79
2016-10-11T04:15:53.556Z,3.64
2016-10-11T04:16:53.224Z,3.67
2016-10-11T04:17:53.533Z,3.61
2016-10-11T04:18:53.512Z,3.65
2016-10-11T04:19:53.479Z,3.71
2016-10-11T04:20:53.154Z,3.76
2016-10-11T04:21:53.461Z,3.76
2016-10-11T04:22:53.117Z,3.68
2016-10-11T04:23:53.100Z,3.71
2016-10-11T04:24:53.073Z,3.76
2016-10-11T04:25:53.369Z,3.82
2016-10-11T04:26:53.038Z,3.78
2016-10-11T04:27:53.017Z,3.75
2016-10-11T04:28:53.001Z,3.7
2016-10-11T04:29:53.001Z,3.71
2016-10-11T04:30:52.967Z,3.79
2016-10-11T04:31:52.957Z,3.7
2016-10-11T04:32:53.245Z,3.72
2016-10-11T04:33:52.919Z,3.83
2016-10-11T04:34:52.889Z,3.8
2016-10-11T04:35:53.187Z,3.85
2016-10-11T04:36:52.858Z,3.83
2016-10-11T04:37:53.191Z,3.9
2016-10-11T04:38:52.815Z,3.9
2016-10-11T04:39:53.185Z,3.9
2016-10-11T04:40:52.776Z,3.92
2016-10-11T04:41:52.758Z,3.9
2016-10-11T04:42:52.738Z,3.97
2016-10-11T04:43:52.719Z,3.9
2016-10-11T04:44:53.016Z,3.92
2016-10-11T04:45:53.001Z,3.97
2016-10-11T04:46:52.670Z,3.97
2016-10-11T04:47:52.648Z,3.97
2016-10-11T04:48:52.628Z,4.03
2016-10-11T04:49:52.616Z,4
2016-10-11T04:50:52.905Z,4
2016-10-11T04:51:52.572Z,4.01
2016-10-11T04:52:52.559Z,4.04
2016-10-11T04:53:52.864Z,4.06
2016-10-11T04:54:52.519Z,3.92
2016-10-11T04:55:52.825Z,4.04
2016-10-11T04:56:52.804Z,4.07
2016-10-11T04:57:52.789Z,4.01
2016-10-11T04:58:52.450Z,4.12
2016-10-11T04:59:52.736Z,4.08
2016-10-11T05:00:52.412Z,4.07
2016-10-11T05:01:52.393Z,4.08
2016-10-11T05:02:52.379Z,4.04
2016-10-11T05:03:52.351Z,4.08
2016-10-11T05:04:52.337Z,4.1
2016-10-11T05:05:52.319Z,4.06
2016-10-11T05:06:52.298Z,4.14
2016-10-11T05:07:52.492Z,4.19
2016-10-11T05:08:52.569Z,4.21
2016-10-11T05:09:52.251Z,4.22
2016-10-11T05:10:52.230Z,4.24
2016-10-11T05:11:52.519Z,4.24
2016-10-11T05:12:52.188Z,4.29
2016-10-11T05:13:52.167Z,4.25
2016-10-11T05:14:52.168Z,4.28
2016-10-11T05:15:52.135Z,4.36
2016-10-11T05:16:52.115Z,4.33
2016-10-11T05:17:52.417Z,4.36
2016-10-11T05:18:52.131Z,4.36
2016-10-11T05:19:52.060Z,4.34
2016-10-11T05:20:52.364Z,4.37
2016-10-11T05:21:52.038Z,4.43
2016-10-11T05:22:52.015Z,4.43
2016-10-11T05:23:51.994Z,4.42
2016-10-11T05:24:52.287Z,4.42
2016-10-11T05:25:51.954Z,4.5
2016-10-11T05:26:51.947Z,4.47
2016-10-11T05:27:51.911Z,4.55
2016-10-11T05:28:51.906Z,4.55
2016-10-11T05:29:51.881Z,4.59
2016-10-11T05:30:52.184Z,4.65
2016-10-11T05:31:51.844Z,4.65
2016-10-11T05:32:51.835Z,4.65
2016-10-11T05:33:52.122Z,4.62
2016-10-11T05:34:52.106Z,4.75
2016-10-11T05:35:51.771Z,4.73
2016-10-11T05:36:51.748Z,4.7
2016-10-11T05:37:52.051Z,4.7
2016-10-11T05:38:51.715Z,4.79
2016-10-11T05:39:52.024Z,4.76
2016-10-11T05:40:52.004Z,4.86
2016-10-11T05:41:51.978Z,4.77
2016-10-11T05:42:51.962Z,4.86
2016-10-11T05:43:52.262Z,4.8
2016-10-11T05:44:51.924Z,4.89
2016-10-11T05:45:52.217Z,4.89
2016-10-11T05:46:51.891Z,4.94
2016-10-11T05:47:51.572Z,4.98
2016-10-11T05:48:51.538Z,4.95
2016-10-11T05:49:51.850Z,4.98
2016-10-11T05:50:51.814Z,4.95
2016-10-11T05:51:51.488Z,5.02
2016-10-11T05:52:51.470Z,5.04
2016-10-11T05:53:51.767Z,5.05
2016-10-11T05:54:51.430Z,5.12
2016-10-11T05:55:51.432Z,5.14
2016-10-11T05:56:51.717Z,5.19
2016-10-11T05:57:51.383Z,5.12
2016-10-11T05:58:51.670Z,5.13
2016-10-11T05:59:51.346Z,5.22
2016-10-11T06:00:51.650Z,5.2
2016-10-11T06:01:51.304Z,5.16
2016-10-11T06:02:51.291Z,5.25
2016-10-11T06:03:51.592Z,5.17
2016-10-11T06:04:51.251Z,5.32
2016-10-11T06:05:51.547Z,5.31
2016-10-11T06:06:51.224Z,5.31
2016-10-11T06:07:51.206Z,5.35
2016-10-11T06:08:51.184Z,5.3
2016-10-11T06:09:51.164Z,5.25
2016-10-11T06:10:51.150Z,5.32
2016-10-11T06:11:51.131Z,5.35
2016-10-11T06:12:51.427Z,5.4
2016-10-11T06:13:51.101Z,5.45
2016-10-11T06:14:51.082Z,5.46
2016-10-11T06:15:51.069Z,5.43
2016-10-11T06:16:51.043Z,5.45
2016-10-11T06:17:51.028Z,5.43
2016-10-11T06:18:51.011Z,5.46
2016-10-11T06:19:51.000Z,5.41
2016-10-11T06:20:50.972Z,5.43
2016-10-11T06:21:50.962Z,5.55
2016-10-11T06:22:50.946Z,5.57
2016-10-11T06:23:50.927Z,5.6
2016-10-11T06:24:50.906Z,5.53
2016-10-11T06:25:50.889Z,5.63
2016-10-11T06:26:50.875Z,5.64
2016-10-11T06:27:50.853Z,5.66
2016-10-11T06:28:50.844Z,5.73
2016-10-11T06:29:50.820Z,5.74
2016-10-11T06:30:51.121Z,5.67
2016-10-11T06:31:51.417Z,5.7
2016-10-11T06:32:50.770Z,5.74
2016-10-11T06:33:50.764Z,5.74
2016-10-11T06:34:50.737Z,5.81
2016-10-11T06:35:51.347Z,5.83
2016-10-11T06:36:51.018Z,5.74
2016-10-11T06:37:50.689Z,5.86
2016-10-11T06:38:50.676Z,5.81
2016-10-11T06:39:50.958Z,5.86
2016-10-11T06:40:50.949Z,5.91
2016-10-11T06:41:50.630Z,5.86
2016-10-11T06:42:50.601Z,5.88
2016-10-11T06:43:50.580Z,5.88
2016-10-11T06:44:50.566Z,5.93
2016-10-11T06:45:50.550Z,6.03
2016-10-11T06:46:50.536Z,5.92
2016-10-11T06:47:50.523Z,5.93
2016-10-11T06:48:50.496Z,5.89
2016-10-11T06:49:50.815Z,6.03
2016-10-11T06:50:50.462Z,5.83
2016-10-11T06:51:50.455Z,5.92
2016-10-11T06:52:50.435Z,5.95
2016-10-11T06:53:50.414Z,5.95
2016-10-11T06:54:50.401Z,6.03
2016-10-11T06:55:50.377Z,5.88
2016-10-11T06:56:50.363Z,5.93
2016-10-11T06:57:50.368Z,5.89
2016-10-11T06:58:50.336Z,5.92
2016-10-11T06:59:50.316Z,6.03
2016-10-11T07:00:50.295Z,5.95
2016-10-11T07:01:50.275Z,5.91
2016-10-11T07:02:50.259Z,6.03
2016-10-11T07:03:50.252Z,6.06
2016-10-11T07:04:50.223Z,6.03
2016-10-11T07:05:50.528Z,6.07
2016-10-11T07:06:50.199Z,6.09
2016-10-11T07:07:50.786Z,6.09
2016-10-11T07:08:50.161Z,6.16
2016-10-11T07:09:50.145Z,6.1
2016-10-11T07:10:50.138Z,6.13
2016-10-11T07:11:50.117Z,6.28
2016-10-11T07:12:50.099Z,6.26
2016-10-11T07:13:50.080Z,6.21
2016-10-11T07:14:50.063Z,6.19
2016-10-11T07:15:50.363Z,6.25
2016-10-11T07:16:50.027Z,6.28
2016-10-11T07:17:50.015Z,6.28
2016-10-11T07:18:50.006Z,6.33
2016-10-11T07:19:49.982Z,6.25
2016-10-11T07:20:49.962Z,6.29
2016-10-11T07:21:49.950Z,6.26
2016-10-11T07:22:49.938Z,6.36
2016-10-11T07:23:50.222Z,6.44
2016-10-11T07:24:50.211Z,6.41
2016-10-11T07:25:49.889Z,6.33
2016-10-11T07:26:49.861Z,6.4
2016-10-11T07:27:49.862Z,6.38
2016-10-11T07:28:49.861Z,6.4
2016-10-11T07:29:49.826Z,6.44
2016-10-11T07:30:49.798Z,6.5
2016-10-11T07:31:49.786Z,6.47
2016-10-11T07:32:50.080Z,6.53
2016-10-11T07:33:49.751Z,6.54
2016-10-11T07:34:49.729Z,6.62
2016-10-11T07:35:49.715Z,6.65
2016-10-11T07:36:50.014Z,6.62
2016-10-11T07:37:49.685Z,6.69
2016-10-11T07:38:49.994Z,6.61
2016-10-11T07:39:49.965Z,6.56
2016-10-11T07:40:49.636Z,6.53
2016-10-11T07:41:49.620Z,6.66
2016-10-11T07:42:49.929Z,6.61
2016-10-11T07:43:49.583Z,6.79
2016-10-11T07:44:49.886Z,6.77
2016-10-11T07:45:49.555Z,6.77
2016-10-11T07:46:49.851Z,6.79
2016-10-11T07:47:49.835Z,6.83
2016-10-11T07:48:49.504Z,6.87
2016-10-11T07:49:49.488Z,6.89
2016-10-11T07:50:49.475Z,6.86
2016-10-11T07:51:49.454Z,6.86
2016-10-11T07:52:49.440Z,6.87
2016-10-11T07:53:49.742Z,6.95
2016-10-11T07:54:49.407Z,6.99
2016-10-11T07:55:49.386Z,6.98
2016-10-11T07:56:49.688Z,7.07
2016-10-11T07:57:49.361Z,7.12
2016-10-11T07:58:49.344Z,7.24
2016-10-11T07:59:49.327Z,7.31
2016-10-11T08:00:49.942Z,7.34
2016-10-11T08:01:49.306Z,7.38
2016-10-11T08:02:49.592Z,7.41
2016-10-11T08:03:49.586Z,7.44
2016-10-11T08:04:49.560Z,7.58
2016-10-11T08:05:49.233Z,7.67
2016-10-11T08:06:49.222Z,7.63
2016-10-11T08:07:49.202Z,7.72
2016-10-11T08:08:49.187Z,7.71
2016-10-11T08:09:49.170Z,7.71
2016-10-11T08:10:49.163Z,7.79
2016-10-11T08:11:49.140Z,7.85
2016-10-11T08:12:49.130Z,7.87
2016-10-11T08:13:49.112Z,7.87
2016-10-11T08:14:49.303Z,7.9
2016-10-11T08:15:49.082Z,7.93
2016-10-11T08:16:49.083Z,8
2016-10-11T08:17:49.051Z,8.03
2016-10-11T08:18:49.040Z,8.08
2016-10-11T08:19:49.026Z,8.17
2016-10-11T08:20:49.007Z,8.14
2016-10-11T08:21:48.995Z,8.17
2016-10-11T08:22:48.983Z,8.28
2016-10-11T08:23:48.971Z,8.15
2016-10-11T08:24:48.944Z,8.3
2016-10-11T08:25:48.946Z,8.32
2016-10-11T08:26:48.927Z,8.32
2016-10-11T08:27:48.901Z,8.32
2016-10-11T08:28:48.893Z,8.32
2016-10-11T08:29:48.880Z,8.32
2016-10-11T08:30:48.860Z,8.33
2016-10-11T08:31:48.844Z,8.35
2016-10-11T08:32:48.833Z,8.48
2016-10-11T08:33:48.815Z,8.47
2016-10-11T08:34:48.803Z,8.53
2016-10-11T08:35:48.791Z,8.58
2016-10-11T08:36:48.771Z,8.54
2016-10-11T08:37:48.761Z,8.65
2016-10-11T08:38:49.062Z,8.55
2016-10-11T08:39:48.728Z,8.63
2016-10-11T08:40:48.716Z,8.71
2016-10-11T08:41:48.701Z,8.71
2016-10-11T08:42:48.687Z,8.73
2016-10-11T08:43:48.675Z,8.75
2016-10-11T08:44:48.979Z,8.71
2016-10-11T08:45:48.961Z,8.84
2016-10-11T08:46:48.631Z,8.83
2016-10-11T08:47:48.623Z,8.87
2016-10-11T08:48:48.601Z,8.81
2016-10-11T08:49:48.594Z,8.87
2016-10-11T08:50:48.579Z,8.93
2016-10-11T08:51:48.566Z,8.94
2016-10-11T08:52:48.861Z,9.02
2016-10-11T08:53:48.535Z,9.12
2016-10-11T08:54:48.836Z,9.09
2016-10-11T08:55:48.507Z,9.15
2016-10-11T08:56:48.493Z,9.13
2016-10-11T08:57:48.475Z,9.24
2016-10-11T08:58:48.465Z,9.28
2016-10-11T08:59:48.764Z,9.38
2016-10-11T09:00:48.441Z,9.45
2016-10-11T09:01:48.430Z,9.48
2016-10-11T09:02:48.417Z,9.52
2016-10-11T09:03:48.720Z,9.5
2016-10-11T09:04:49.021Z,9.57
2016-10-11T09:05:48.435Z,9.57
2016-10-11T09:06:48.680Z,9.68
2016-10-11T09:07:48.353Z,9.64
2016-10-11T09:08:48.329Z,9.61
2016-10-11T09:09:48.648Z,9.78
2016-10-11T09:10:48.950Z,9.78
2016-10-11T09:11:48.299Z,9.79
2016-10-11T09:12:48.277Z,9.71
2016-10-11T09:13:48.265Z,9.75
2016-10-11T09:14:48.577Z,9.82
2016-10-11T09:15:48.556Z,9.78
2016-10-11T09:16:48.227Z,9.93
2016-10-11T09:17:48.531Z,9.93
2016-10-11T09:18:48.198Z,9.96
2016-10-11T09:19:48.193Z,10.03
2016-10-11T09:20:48.171Z,10.07
2016-10-11T09:21:48.165Z,10.19
2016-10-11T09:22:48.162Z,10.18
2016-10-11T09:23:48.139Z,10.3
2016-10-11T09:24:48.452Z,10.33
2016-10-11T09:25:48.461Z,10.42
2016-10-11T09:26:48.099Z,10.6
2016-10-11T09:27:48.087Z,10.76
2016-10-11T09:28:48.080Z,10.8
2016-10-11T09:29:48.065Z,10.78
2016-10-11T09:30:48.366Z,10.96
2016-10-11T09:31:48.047Z,11.01
2016-10-11T09:32:48.042Z,11.06
2016-10-11T09:33:48.337Z,11.17
2016-10-11T09:34:48.002Z,11.34
2016-10-11T09:35:48.326Z,11.28
2016-10-11T09:36:47.981Z,11.36
2016-10-11T09:37:47.970Z,11.47
2016-10-11T09:38:47.961Z,11.41
2016-10-11T09:39:47.943Z,11.44
2016-10-11T09:40:47.938Z,11.52
2016-10-11T09:41:47.923Z,11.41
2016-10-11T09:42:47.929Z,11.53
2016-10-11T09:43:47.899Z,11.53
2016-10-11T09:44:47.896Z,11.54
2016-10-11T09:45:47.890Z,11.64
2016-10-11T09:46:47.873Z,11.62
2016-10-11T09:47:47.857Z,11.64
2016-10-11T09:48:47.844Z,11.64
2016-10-11T09:49:47.834Z,11.8
2016-10-11T09:50:47.824Z,11.87
2016-10-11T09:51:47.813Z,11.86
2016-10-11T09:52:47.799Z,11.85
2016-10-11T09:53:48.105Z,11.78
2016-10-11T09:54:48.092Z,11.82
2016-10-11T09:55:47.768Z,11.9
2016-10-11T09:56:47.759Z,11.96
2016-10-11T09:57:48.062Z,11.97
2016-10-11T09:58:47.736Z,11.99
2016-10-11T09:59:47.721Z,12.06
2016-10-11T10:00:47.708Z,11.93
2016-10-11T10:01:47.703Z,12.01
2016-10-11T10:02:47.694Z,11.99
2016-10-11T10:03:47.993Z,11.99
2016-10-11T10:04:47.670Z,11.96
2016-10-11T10:05:47.660Z,12.01
2016-10-11T10:06:47.648Z,11.99
2016-10-11T10:07:47.637Z,11.93
2016-10-11T10:08:47.624Z,12.08
2016-10-11T10:09:47.639Z,12.04
2016-10-11T10:10:47.603Z,12.06
2016-10-11T10:11:47.910Z,12.08
2016-10-11T10:12:47.903Z,12.15
2016-10-11T10:13:47.573Z,12.16
2016-10-11T10:14:47.876Z,12.21
2016-10-11T10:15:47.547Z,12.23
2016-10-11T10:16:47.547Z,12.21
2016-10-11T10:17:47.530Z,12.21
2016-10-11T10:18:47.517Z,12.2
2016-10-11T10:19:47.506Z,12.2
2016-10-11T10:20:47.499Z,12.13
2016-10-11T10:21:47.488Z,12.19
2016-10-11T10:22:47.473Z,12.19
2016-10-11T10:23:47.466Z,12.13
2016-10-11T10:24:47.451Z,12.16
2016-10-11T10:25:48.066Z,12.19
2016-10-11T10:26:47.428Z,12.2
2016-10-11T10:27:47.420Z,12.2
2016-10-11T10:28:47.404Z,12.19
2016-10-11T10:29:47.396Z,12.21
2016-10-11T10:30:47.381Z,12.38
2016-10-11T10:31:47.374Z,12.24
2016-10-11T10:32:47.361Z,12.24
2016-10-11T10:33:47.357Z,12.24
2016-10-11T10:34:47.343Z,12.23
2016-10-11T10:35:47.330Z,12.34
2016-10-11T10:36:47.322Z,12.38
2016-10-11T10:37:47.315Z,12.37
2016-10-11T10:38:47.298Z,12.37
2016-10-11T10:39:47.296Z,12.41
2016-10-11T10:40:47.281Z,12.44
2016-10-11T10:41:47.263Z,12.34
2016-10-11T10:42:47.253Z,12.51
2016-10-11T10:43:47.246Z,12.48
2016-10-11T10:44:47.229Z,12.46
2016-10-11T10:45:47.221Z,12.51
2016-10-11T10:46:47.210Z,12.67
2016-10-11T10:47:47.207Z,12.62
2016-10-11T10:48:47.193Z,12.69
2016-10-11T10:49:47.181Z,12.7
2016-10-11T10:50:47.494Z,12.88
2016-10-11T10:51:47.166Z,12.92
2016-10-11T10:52:47.471Z,12.97
2016-10-11T10:53:47.152Z,13.06
2016-10-11T10:54:47.140Z,13.02
2016-10-11T10:55:47.123Z,12.97
2016-10-11T10:56:47.421Z,12.99
2016-10-11T10:57:47.099Z,12.97
2016-10-11T10:58:47.090Z,13.12
2016-10-11T10:59:47.087Z,13.09
2016-10-11T11:00:47.072Z,13.2
2016-10-11T11:01:47.373Z,13.2
2016-10-11T11:02:47.048Z,13.22
2016-10-11T11:03:47.041Z,13.18
2016-10-11T11:04:47.363Z,13.4
2016-10-11T11:05:47.021Z,13.41
2016-10-11T11:06:47.017Z,13.46
2016-10-11T11:07:47.001Z,13.52
2016-10-11T11:08:47.197Z,13.46
2016-10-11T11:09:46.987Z,13.44
2016-10-11T11:10:47.295Z,13.54
2016-10-11T11:11:46.965Z,13.7
2016-10-11T11:12:47.269Z,13.87
2016-10-11T11:13:47.264Z,13.83
2016-10-11T11:14:46.951Z,13.79
2016-10-11T11:15:46.927Z,13.95
2016-10-11T11:16:46.919Z,13.81
2016-10-11T11:17:46.914Z,13.71
2016-10-11T11:18:46.910Z,13.73
2016-10-11T11:19:46.891Z,13.83
2016-10-11T11:20:46.888Z,13.81
2016-10-11T11:21:46.879Z,13.87
2016-10-11T11:22:46.873Z,13.79
2016-10-11T11:23:46.863Z,13.8
2016-10-11T11:24:46.846Z,13.83
2016-10-11T11:25:46.865Z,13.81
2016-10-11T11:26:46.833Z,13.92
2016-10-11T11:27:46.825Z,13.95
2016-10-11T11:28:46.817Z,13.99
2016-10-11T11:29:46.835Z,13.94
2016-10-11T11:30:46.820Z,14.01
2016-10-11T11:31:46.795Z,14.09
2016-10-11T11:32:46.793Z,14.17
2016-10-11T11:33:46.774Z,14.32
2016-10-11T11:34:47.089Z,14.21
2016-10-11T11:35:46.760Z,14.31
2016-10-11T11:36:46.751Z,14.37
2016-10-11T11:37:46.744Z,14.44
2016-10-11T11:38:46.735Z,14.53
2016-10-11T11:39:47.357Z,14.47
2016-10-11T11:40:47.036Z,14.49
2016-10-11T11:41:47.023Z,14.38
2016-10-11T11:42:46.698Z,14.37
2016-10-11T11:43:46.715Z,14.24
2016-10-11T11:44:46.693Z,14.29
2016-10-11T11:45:46.677Z,14.34
2016-10-11T11:46:46.672Z,14.2
2016-10-11T11:47:46.669Z,14.19
2016-10-11T11:48:46.657Z,14.17
2016-10-11T11:49:46.958Z,14.04
2016-10-11T11:50:46.639Z,13.89
2016-10-11T11:51:46.628Z,13.81
2016-10-11T11:52:46.976Z,13.91
2016-10-11T11:53:46.610Z,13.69
2016-10-11T11:54:46.921Z,13.67
2016-10-11T11:55:46.595Z,13.58
2016-10-11T11:56:46.582Z,13.52
2016-10-11T11:57:46.579Z,13.41
2016-10-11T11:58:46.643Z,13.41
2016-10-11T11:59:46.871Z,13.32
2016-10-11T12:00:46.563Z,13.32
2016-10-11T12:01:46.545Z,13.24
2016-10-11T12:02:46.848Z,13.37
2016-10-11T12:03:46.520Z,13.29
2016-10-11T12:04:46.516Z,13.29
2016-10-11T12:05:46.501Z,13.18
2016-10-11T12:06:46.491Z,13.14
2016-10-11T12:07:46.484Z,13.15
2016-10-11T12:08:46.475Z,13.14
2016-10-11T12:09:46.464Z,13.2
2016-10-11T12:10:46.771Z,13.21
2016-10-11T12:11:46.777Z,13.15
2016-10-11T12:12:46.436Z,13.15
2016-10-11T12:13:46.431Z,13.24
2016-10-11T12:14:46.728Z,13.21
2016-10-11T12:15:46.406Z,13.27
2016-10-11T12:16:46.403Z,13.18
2016-10-11T12:17:46.387Z,13.21
2016-10-11T12:18:46.370Z,13.17
2016-10-11T12:19:46.370Z,13.18
2016-10-11T12:20:46.354Z,13.2
2016-10-11T12:21:46.346Z,13.2
2016-10-11T12:22:46.643Z,13.25
2016-10-11T12:23:46.654Z,13.2
2016-10-11T12:24:46.318Z,13.3
2016-10-11T12:25:46.312Z,13.17
2016-10-11T12:26:46.320Z,13.24
2016-10-11T12:27:46.280Z,13.14
2016-10-11T12:28:46.591Z,13.17
2016-10-11T12:29:46.575Z,13.22
2016-10-11T12:30:46.254Z,13.07
2016-10-11T12:31:46.253Z,13.17
2016-10-11T12:32:46.559Z,13.2
2016-10-11T12:33:46.538Z,13.06
2016-10-11T12:34:46.216Z,13.07
2016-10-11T12:35:46.519Z,13.25
2016-10-11T12:36:46.194Z,13.41
2016-10-11T12:37:46.181Z,13.32
2016-10-11T12:38:46.486Z,13.54
2016-10-11T12:39:46.165Z,13.61
2016-10-11T12:40:46.152Z,13.81
2016-10-11T12:41:46.196Z,13.92
2016-10-11T12:42:46.144Z,14.13
2016-10-11T12:43:46.136Z,14.16
2016-10-11T12:44:46.130Z,14.34
2016-10-11T12:45:46.104Z,14.44
2016-10-11T12:46:46.102Z,14.56
2016-10-11T12:47:46.395Z,15.17
2016-10-11T12:48:46.078Z,15.54
2016-10-11T12:49:46.076Z,15.82
2016-10-11T12:50:46.060Z,15.92
2016-10-11T12:51:46.048Z,16.53
2016-10-11T12:52:46.050Z,16.96
2016-10-11T12:53:46.049Z,16.89
2016-10-11T12:54:46.027Z,16.77
2016-10-11T12:55:46.337Z,16.68
2016-10-11T12:56:46.012Z,16.73
2016-10-11T12:57:46.013Z,16.55
2016-10-11T12:58:46.006Z,16.34
2016-10-11T12:59:45.996Z,16.14
2016-10-11T13:00:45.996Z,15.94
2016-10-11T13:01:45.986Z,15.86
2016-10-11T13:02:45.988Z,15.64
2016-10-11T13:03:45.973Z,15.59
2016-10-11T13:05:57.379Z,15.33
2016-10-11T13:06:45.949Z,15.09
2016-10-11T13:07:45.946Z,14.9
2016-10-11T13:08:46.141Z,14.8
2016-10-11T13:09:45.929Z,14.57
2016-10-11T13:10:45.919Z,14.47
2016-10-11T13:11:46.226Z,14.5
2016-10-11T13:12:46.533Z,14.44
2016-10-11T13:13:46.208Z,14.31
2016-10-11T13:14:45.890Z,14.28